createdAt,value
2023-02-07T00:01:41.333Z,45.10
2023-02-07T00:04:09.639Z,44.96
2023-02-07T00:06:38.250Z,44.62
2023-02-07T00:09:10.288Z,44.50
2023-02-07T00:11:41.710Z,45.29
2023-02-07T00:14:13.197Z,44.96
2023-02-07T00:16:42.955Z,44.33
2023-02-07T00:19:11.489Z,45.03
2023-02-07T00:21:39.810Z,45.08
2023-02-07T00:24:08.634Z,45.22
2023-02-07T00:26:36.962Z,44.78
2023-02-07T00:29:06.470Z,45.04
2023-02-07T00:31:36.999Z,44.80
2023-02-07T00:34:07.351Z,45.23
2023-02-07T00:36:37.509Z,45.07
2023-02-07T00:39:10.087Z,45.28
2023-02-07T00:41:38.614Z,45.67
2023-02-07T00:44:07.536Z,45.02
2023-02-07T00:46:36.294Z,45.43
2023-02-07T00:49:05.837Z,45.56
2023-02-07T00:51:34.707Z,45.59
2023-02-07T00:54:03.523Z,44.73
2023-02-07T00:56:32.536Z,45.55
2023-02-07T00:59:01.594Z,45.48
2023-02-07T01:01:30.167Z,45.10
2023-02-07T01:03:58.672Z,45.49
2023-02-07T01:06:28.829Z,45.51
2023-02-07T01:09:01.003Z,46.03
2023-02-07T01:11:30.263Z,46.04
2023-02-07T01:14:01.996Z,46.07
2023-02-07T01:16:37.602Z,45.80
2023-02-07T01:19:09.213Z,46.33
2023-02-07T01:21:38.121Z,46.29
2023-02-07T01:24:07.085Z,46.19
2023-02-07T01:26:36.221Z,45.88
2023-02-07T01:29:04.701Z,45.89
2023-02-07T01:31:33.230Z,45.16
2023-02-07T01:34:04.180Z,45.76
2023-02-07T01:36:33.764Z,45.72
2023-02-07T01:39:02.107Z,45.67
2023-02-07T01:41:30.568Z,46.03
2023-02-07T01:44:03.272Z,45.93
2023-02-07T01:46:33.605Z,46.44
2023-02-07T01:49:09.128Z,46.12
2023-02-07T01:51:39.282Z,46.21
2023-02-07T01:54:10.983Z,46.40
2023-02-07T01:56:45.151Z,46.44
2023-02-07T01:59:15.001Z,46.98
2023-02-07T02:01:45.654Z,47.16
2023-02-07T02:04:14.221Z,47.18
2023-02-07T02:06:42.914Z,47.60
2023-02-07T02:09:14.596Z,47.90
2023-02-07T02:12:06.976Z,48.08
2023-02-07T02:15:07.025Z,48.41
2023-02-07T02:17:54.844Z,48.70
2023-02-07T02:20:54.226Z,49.22
2023-02-07T02:23:59.722Z,49.87
2023-02-07T02:26:56.441Z,50.21
2023-02-07T02:29:56.501Z,50.21
2023-02-07T02:32:58.246Z,50.55
2023-02-07T02:35:50.826Z,50.46
2023-02-07T02:38:55.051Z,50.87
2023-02-07T02:41:30.128Z,50.95
2023-02-07T02:44:08.522Z,51.33
2023-02-07T02:46:40.094Z,51.48
2023-02-07T02:49:11.657Z,51.73
2023-02-07T02:51:39.993Z,51.78
2023-02-07T02:54:34.830Z,51.74
2023-02-07T02:57:28.368Z,51.58
2023-02-07T03:00:10.157Z,51.78
2023-02-07T03:02:44.237Z,51.93
2023-02-07T03:05:47.569Z,51.83
2023-02-07T03:08:39.506Z,51.66
2023-02-07T03:11:18.698Z,51.63
2023-02-07T03:13:52.752Z,52.01
2023-02-07T03:16:50.902Z,51.55
2023-02-07T03:19:54.526Z,51.85
2023-02-07T03:22:27.304Z,52.09
2023-02-07T03:24:58.790Z,52.01
2023-02-07T03:27:30.398Z,52.30
2023-02-07T03:30:02.787Z,52.68
2023-02-07T03:32:38.860Z,53.28
2023-02-07T03:35:14.980Z,53.35
2023-02-07T03:37:49.190Z,53.71
2023-02-07T03:40:18.222Z,53.68
2023-02-07T03:43:17.340Z,53.79
2023-02-07T03:45:45.968Z,54.08
2023-02-07T03:48:16.146Z,54.31
2023-02-07T03:50:44.657Z,54.78
2023-02-07T03:53:12.957Z,54.98
2023-02-07T03:55:41.313Z,54.73
2023-02-07T03:58:10.516Z,55.34
2023-02-07T04:00:39.349Z,55.53
2023-02-07T04:03:07.687Z,55.96
2023-02-07T04:05:36.442Z,55.95
2023-02-07T04:08:05.188Z,55.98
2023-02-07T04:10:33.472Z,56.13
2023-02-07T04:13:01.784Z,56.45
2023-02-07T04:15:30.239Z,56.88
2023-02-07T04:17:58.533Z,56.96
2023-02-07T04:20:26.830Z,57.09
2023-02-07T04:22:55.105Z,57.21
2023-02-07T04:25:23.360Z,57.17
2023-02-07T04:27:51.795Z,57.58
2023-02-07T04:30:20.319Z,57.62
2023-02-07T04:32:48.640Z,57.95
2023-02-07T04:35:16.933Z,58.19
2023-02-07T04:37:45.548Z,58.44
2023-02-07T04:40:13.857Z,58.71
2023-02-07T04:42:42.178Z,59.10
2023-02-07T04:45:10.840Z,59.17
2023-02-07T04:47:39.118Z,59.04
2023-02-07T04:50:07.727Z,59.38
2023-02-07T04:52:36.081Z,59.56
2023-02-07T04:55:04.522Z,59.43
2023-02-07T04:57:32.750Z,59.57
2023-02-07T05:00:01.022Z,59.87
2023-02-07T05:02:29.293Z,59.71
2023-02-07T05:04:57.793Z,59.78
2023-02-07T05:07:26.091Z,59.88
2023-02-07T05:09:54.509Z,59.73
2023-02-07T05:12:22.750Z,59.70
2023-02-07T05:14:51.051Z,59.93
2023-02-07T05:17:19.395Z,60.01
2023-02-07T05:19:47.740Z,60.06
2023-02-07T05:22:16.201Z,60.03
2023-02-07T05:24:45.159Z,60.27
2023-02-07T05:27:13.562Z,60.38
2023-02-07T05:29:41.842Z,60.34
2023-02-07T05:32:32.157Z,60.62
2023-02-07T05:35:00.746Z,60.69
2023-02-07T05:37:29.165Z,60.66
2023-02-07T05:39:57.485Z,61.00
2023-02-07T05:42:25.735Z,60.87
2023-02-07T05:44:54.662Z,61.11
2023-02-07T05:47:22.967Z,61.14
2023-02-07T05:49:51.242Z,61.37
2023-02-07T05:52:19.570Z,61.23
2023-02-07T05:54:47.861Z,61.36
2023-02-07T05:57:16.194Z,61.42
2023-02-07T05:59:44.506Z,61.18
2023-02-07T06:02:12.909Z,61.64
2023-02-07T06:04:41.162Z,61.10
2023-02-07T06:07:09.549Z,61.42
2023-02-07T06:09:37.982Z,61.40
2023-02-07T06:12:06.508Z,61.24
2023-02-07T06:14:34.874Z,61.60
2023-02-07T06:17:03.148Z,61.82
2023-02-07T06:19:31.435Z,61.85
2023-02-07T06:21:59.876Z,61.67
2023-02-07T06:24:28.188Z,61.60
2023-02-07T06:26:56.964Z,62.24
2023-02-07T06:29:25.273Z,62.33
2023-02-07T06:31:53.574Z,62.01
2023-02-07T06:34:21.918Z,62.02
2023-02-07T06:36:50.645Z,62.16
2023-02-07T06:39:18.983Z,62.37
2023-02-07T06:41:47.296Z,62.19
2023-02-07T06:44:15.694Z,62.43
2023-02-07T06:46:44.069Z,62.31
2023-02-07T06:49:12.846Z,62.60
2023-02-07T06:51:41.098Z,62.13
2023-02-07T06:54:10.867Z,62.33
2023-02-07T06:56:39.473Z,62.69
2023-02-07T06:59:07.796Z,62.47
2023-02-07T07:01:36.316Z,62.51
2023-02-07T07:04:04.682Z,62.94
2023-02-07T07:06:32.993Z,62.76
2023-02-07T07:09:01.225Z,62.83
2023-02-07T07:11:29.598Z,63.18
2023-02-07T07:13:57.881Z,63.18
2023-02-07T07:16:26.373Z,63.10
2023-02-07T07:18:54.710Z,63.30
2023-02-07T07:21:22.961Z,63.17
2023-02-07T07:23:51.296Z,63.49
2023-02-07T07:26:19.578Z,63.44
2023-02-07T07:28:48.146Z,63.71
2023-02-07T07:31:16.599Z,63.41
2023-02-07T07:33:45.356Z,63.88
2023-02-07T07:36:13.738Z,63.89
2023-02-07T07:38:44.665Z,64.20
2023-02-07T07:41:15.922Z,63.40
2023-02-07T07:43:44.178Z,63.88
2023-02-07T07:46:12.477Z,63.88
2023-02-07T07:48:40.722Z,64.27
2023-02-07T07:51:09.024Z,63.56
2023-02-07T07:53:37.420Z,64.00
2023-02-07T07:56:06.205Z,64.19
2023-02-07T07:58:34.525Z,64.29
2023-02-07T08:01:02.875Z,64.54
2023-02-07T08:03:31.284Z,63.79
2023-02-07T08:05:59.612Z,64.60
2023-02-07T08:08:28.003Z,64.15
2023-02-07T08:10:56.345Z,64.32
2023-02-07T08:13:27.525Z,64.59
2023-02-07T08:15:57.891Z,64.32
2023-02-07T08:18:26.212Z,64.30
2023-02-07T08:20:54.625Z,64.15
2023-02-07T08:23:24.030Z,64.64
2023-02-07T08:25:52.418Z,64.64
2023-02-07T08:28:21.394Z,64.30
2023-02-07T08:30:50.052Z,64.38
2023-02-07T08:33:18.951Z,64.51
2023-02-07T08:35:47.461Z,64.34
2023-02-07T08:38:15.729Z,64.12
2023-02-07T08:40:44.104Z,64.16
2023-02-07T08:43:13.217Z,64.41
2023-02-07T08:45:44.021Z,64.28
2023-02-07T08:48:12.376Z,64.99
2023-02-07T08:50:40.910Z,64.99
2023-02-07T08:53:09.449Z,64.65
2023-02-07T08:55:37.974Z,64.89
2023-02-07T08:58:06.301Z,64.88
2023-02-07T09:00:36.287Z,65.18
2023-02-07T09:03:05.436Z,64.80
2023-02-07T09:05:34.558Z,65.04
2023-02-07T09:08:03.247Z,65.38
2023-02-07T09:10:31.929Z,65.24
2023-02-07T09:13:00.347Z,65.73
2023-02-07T09:15:28.934Z,65.38
2023-02-07T09:17:57.256Z,65.21
2023-02-07T09:20:25.627Z,65.71
2023-02-07T09:23:12.379Z,65.77
2023-02-07T09:25:42.000Z,65.44
2023-02-07T09:28:11.259Z,65.86
2023-02-07T09:30:43.338Z,65.92
2023-02-07T09:33:12.816Z,66.26
2023-02-07T09:35:42.926Z,65.32
2023-02-07T09:38:15.604Z,65.82
2023-02-07T09:40:45.874Z,65.34
2023-02-07T09:43:54.968Z,65.84
2023-02-07T09:46:44.333Z,65.71
2023-02-07T09:49:28.846Z,66.09
2023-02-07T09:52:00.212Z,65.92
2023-02-07T09:54:39.148Z,66.32
2023-02-07T09:57:39.786Z,66.36
2023-02-07T10:00:29.798Z,66.57
2023-02-07T10:03:11.865Z,65.71
2023-02-07T10:06:01.465Z,66.66
2023-02-07T10:08:40.791Z,66.82
2023-02-07T10:11:10.087Z,66.39
2023-02-07T10:13:50.791Z,65.87
2023-02-07T10:16:52.265Z,66.14
2023-02-07T10:19:46.710Z,66.62
2023-02-07T10:22:28.792Z,66.89
2023-02-07T10:25:19.619Z,66.87
2023-02-07T10:27:59.667Z,66.73
2023-02-07T10:30:33.034Z,66.34
2023-02-07T10:33:18.250Z,66.80
2023-02-07T10:35:47.317Z,66.94
2023-02-07T10:38:44.510Z,66.83
2023-02-07T10:41:40.098Z,67.29
2023-02-07T10:44:13.222Z,66.87
2023-02-07T10:46:46.195Z,66.80
2023-02-07T10:49:26.433Z,67.01
2023-02-07T10:52:00.931Z,66.19
2023-02-07T10:54:29.968Z,67.41
2023-02-07T10:57:02.951Z,67.13
2023-02-07T10:59:41.266Z,67.44
2023-02-07T11:02:33.898Z,67.22
2023-02-07T11:05:25.365Z,66.50
2023-02-07T11:08:17.052Z,66.78
2023-02-07T11:10:46.826Z,67.24
2023-02-07T11:13:25.386Z,66.84
2023-02-07T11:16:08.772Z,66.57
2023-02-07T11:18:45.013Z,67.82
2023-02-07T11:21:25.084Z,67.39
2023-02-07T11:23:56.743Z,67.51
2023-02-07T11:26:25.980Z,68.04
2023-02-07T11:29:09.343Z,67.37
2023-02-07T11:31:39.516Z,67.26
2023-02-07T11:34:28.298Z,67.16
2023-02-07T11:37:09.143Z,67.51
2023-02-07T11:39:37.707Z,67.39
2023-02-07T11:42:15.550Z,67.48
2023-02-07T11:44:45.800Z,66.97
2023-02-07T11:47:19.138Z,67.02
2023-02-07T11:49:52.094Z,67.38
2023-02-07T11:52:20.720Z,67.42
2023-02-07T11:54:57.383Z,67.55
2023-02-07T11:57:29.018Z,67.09
2023-02-07T12:00:07.495Z,67.60
2023-02-07T12:02:37.097Z,67.83
2023-02-07T12:05:26.780Z,67.17
2023-02-07T12:08:02.464Z,67.40
2023-02-07T12:10:35.884Z,67.35
2023-02-07T12:13:09.546Z,67.83
2023-02-07T12:15:38.085Z,67.72
2023-02-07T12:18:08.977Z,67.43
2023-02-07T12:20:56.892Z,67.65
2023-02-07T12:24:15.572Z,67.60
2023-02-07T12:26:46.152Z,68.05
2023-02-07T12:29:41.893Z,67.67
2023-02-07T12:32:47.060Z,67.60
2023-02-07T12:35:51.995Z,68.47
2023-02-07T12:38:46.436Z,68.03
2023-02-07T12:41:25.250Z,68.22
2023-02-07T12:44:07.269Z,67.90
2023-02-07T12:47:03.654Z,68.12
2023-02-07T12:49:52.094Z,68.52
2023-02-07T12:52:35.440Z,67.46
2023-02-07T12:55:35.853Z,68.50
2023-02-07T12:58:10.040Z,68.21
2023-02-07T13:01:07.188Z,68.40
2023-02-07T13:03:51.102Z,68.55
2023-02-07T13:06:32.420Z,68.08
2023-02-07T13:09:07.203Z,68.52
2023-02-07T13:11:40.511Z,67.81
2023-02-07T13:14:39.290Z,68.65
2023-02-07T13:17:52.122Z,68.55
2023-02-07T13:20:33.338Z,68.29
2023-02-07T13:23:05.560Z,68.41
2023-02-07T13:25:43.744Z,68.76
2023-02-07T13:28:39.708Z,68.54
2023-02-07T13:31:12.505Z,68.20
2023-02-07T13:33:43.091Z,68.51
2023-02-07T13:36:32.373Z,68.76
2023-02-07T13:39:23.493Z,68.03
2023-02-07T13:41:57.330Z,68.57
2023-02-07T13:44:34.310Z,68.33
2023-02-07T13:47:37.986Z,68.31
2023-02-07T13:50:29.057Z,68.96
2023-02-07T13:53:21.236Z,68.36
2023-02-07T13:55:50.732Z,68.67
2023-02-07T13:58:55.588Z,68.62
2023-02-07T14:01:33.357Z,69.28
2023-02-07T14:04:07.410Z,69.21
2023-02-07T14:06:56.808Z,68.80
2023-02-07T14:09:34.466Z,68.77
2023-02-07T14:12:08.949Z,69.18
2023-02-07T14:14:39.549Z,69.00
2023-02-07T14:17:28.739Z,68.71
2023-02-07T14:19:59.272Z,68.76
2023-02-07T14:22:39.522Z,68.92
2023-02-07T14:25:08.262Z,69.26
2023-02-07T14:27:39.589Z,68.73
2023-02-07T14:30:22.924Z,68.88
2023-02-07T14:33:17.298Z,69.48
2023-02-07T14:36:05.032Z,68.96
2023-02-07T14:38:59.994Z,69.79
2023-02-07T14:41:34.920Z,69.15
2023-02-07T14:44:09.885Z,69.15
2023-02-07T14:46:52.600Z,69.64
2023-02-07T14:49:47.058Z,69.40
2023-02-07T14:52:23.279Z,69.93
2023-02-07T14:55:00.432Z,69.47
2023-02-07T14:57:36.677Z,69.57
2023-02-07T15:00:14.339Z,69.25
2023-02-07T15:02:51.915Z,69.38
2023-02-07T15:05:48.345Z,69.77
2023-02-07T15:08:26.473Z,69.89
2023-02-07T15:11:02.512Z,69.34
2023-02-07T15:13:40.416Z,69.61
2023-02-07T15:16:10.139Z,69.52
2023-02-07T15:18:46.728Z,69.67
2023-02-07T15:21:21.331Z,69.50
2023-02-07T15:24:01.794Z,69.93
2023-02-07T15:26:30.669Z,69.20
2023-02-07T15:29:05.306Z,69.52
2023-02-07T15:31:40.487Z,69.90
2023-02-07T15:34:20.616Z,69.88
2023-02-07T15:36:50.719Z,70.08
2023-02-07T15:39:30.956Z,69.49
2023-02-07T15:41:59.468Z,69.76
2023-02-07T15:44:30.216Z,69.67
2023-02-07T15:47:07.287Z,69.57
2023-02-07T15:49:37.028Z,70.13
2023-02-07T15:52:26.358Z,69.32
2023-02-07T15:54:56.799Z,69.27
2023-02-07T15:57:43.894Z,69.27
2023-02-07T16:00:42.090Z,68.86
2023-02-07T16:03:22.024Z,69.43
2023-02-07T16:05:50.925Z,69.45
2023-02-07T16:08:52.872Z,69.29
2023-02-07T16:11:26.768Z,69.75
2023-02-07T16:14:01.040Z,69.44
2023-02-07T16:16:35.653Z,69.24
2023-02-07T16:19:08.792Z,68.64
2023-02-07T16:21:37.677Z,69.08
2023-02-07T16:24:15.430Z,68.93
2023-02-07T16:26:45.118Z,68.40
2023-02-07T16:29:24.837Z,68.62
2023-02-07T16:31:54.800Z,68.04
2023-02-07T16:34:23.884Z,68.40
2023-02-07T16:36:56.962Z,67.73
2023-02-07T16:39:25.304Z,68.00
2023-02-07T16:41:58.185Z,67.37
2023-02-07T16:44:29.107Z,67.63
2023-02-07T16:46:57.421Z,67.58
2023-02-07T16:49:28.162Z,67.22
2023-02-07T16:51:57.345Z,67.09
2023-02-07T16:54:25.803Z,66.68
2023-02-07T16:57:01.497Z,66.81
2023-02-07T16:59:31.164Z,66.82
2023-02-07T17:01:59.549Z,66.52
2023-02-07T17:04:27.894Z,67.02
2023-02-07T17:06:56.314Z,66.69
2023-02-07T17:09:26.673Z,66.32
2023-02-07T17:11:55.930Z,66.12
2023-02-07T17:14:24.292Z,66.42
2023-02-07T17:16:52.796Z,65.94
2023-02-07T17:19:27.866Z,66.07
2023-02-07T17:21:57.477Z,65.59
2023-02-07T17:24:25.754Z,65.68
2023-02-07T17:26:55.657Z,65.48
2023-02-07T17:29:23.919Z,65.23
2023-02-07T17:31:52.255Z,65.44
2023-02-07T17:34:20.574Z,65.44
2023-02-07T17:36:50.855Z,65.28
2023-02-07T17:39:20.499Z,65.26
2023-02-07T17:41:49.556Z,65.07
2023-02-07T17:44:22.049Z,64.68
2023-02-07T17:46:50.646Z,64.74
2023-02-07T17:49:19.440Z,64.62
2023-02-07T17:51:47.795Z,64.29
2023-02-07T17:54:16.082Z,63.94
2023-02-07T17:56:44.407Z,63.87
2023-02-07T17:59:23.370Z,63.75
2023-02-07T18:01:51.800Z,63.55
2023-02-07T18:04:20.174Z,63.14
2023-02-07T18:06:48.845Z,63.03
2023-02-07T18:09:21.303Z,62.83
2023-02-07T18:11:50.323Z,62.60
2023-02-07T18:14:18.857Z,62.22
2023-02-07T18:16:47.315Z,62.14
2023-02-07T18:19:19.648Z,61.80
2023-02-07T18:21:48.004Z,61.59
2023-02-07T18:24:16.727Z,61.31
2023-02-07T18:26:47.256Z,61.29
2023-02-07T18:29:15.545Z,60.92
2023-02-07T18:31:44.464Z,60.96
2023-02-07T18:34:12.796Z,60.74
2023-02-07T18:36:41.129Z,60.61
2023-02-07T18:39:11.375Z,60.78
2023-02-07T18:41:39.737Z,60.63
2023-02-07T18:44:08.546Z,60.54
2023-02-07T18:46:36.867Z,60.07
2023-02-07T18:49:05.310Z,59.82
2023-02-07T18:51:34.744Z,59.38
2023-02-07T18:54:03.037Z,59.72
2023-02-07T18:56:31.463Z,59.25
2023-02-07T18:58:59.885Z,58.72
2023-02-07T19:01:31.184Z,58.55
2023-02-07T19:04:02.344Z,58.70
2023-02-07T19:06:34.959Z,58.08
2023-02-07T19:09:03.292Z,57.90
2023-02-07T19:11:32.154Z,57.91
2023-02-07T19:14:00.466Z,57.36
2023-02-07T19:16:29.275Z,57.48
2023-02-07T19:18:59.807Z,57.47
2023-02-07T19:21:28.278Z,57.57
2023-02-07T19:23:58.618Z,57.16
2023-02-07T19:26:27.791Z,56.83
2023-02-07T19:28:56.093Z,56.15
2023-02-07T19:31:29.826Z,55.52
2023-02-07T19:33:59.468Z,56.10
2023-02-07T19:36:29.052Z,55.54
2023-02-07T19:39:08.062Z,55.16
2023-02-07T19:41:36.673Z,55.43
2023-02-07T19:44:05.206Z,54.43
2023-02-07T19:46:33.674Z,54.56
2023-02-07T19:49:02.054Z,54.68
2023-02-07T19:51:32.847Z,53.59
2023-02-07T19:54:01.942Z,53.89
2023-02-07T19:56:37.400Z,53.95
2023-02-07T19:59:07.641Z,53.21
2023-02-07T20:01:38.868Z,53.43
2023-02-07T20:04:07.247Z,53.13
2023-02-07T20:06:36.310Z,52.86
2023-02-07T20:09:06.779Z,53.15
2023-02-07T20:11:35.919Z,52.23
2023-02-07T20:14:04.244Z,52.78
2023-02-07T20:16:36.217Z,53.04
2023-02-07T20:19:06.651Z,52.13
2023-02-07T20:21:36.564Z,52.01
2023-02-07T20:24:05.951Z,51.85
2023-02-07T20:26:43.931Z,51.78
2023-02-07T20:29:17.823Z,51.91
2023-02-07T20:31:48.961Z,51.81
2023-02-07T20:34:17.879Z,50.88
2023-02-07T20:36:47.277Z,50.62
2023-02-07T20:39:19.096Z,51.31
2023-02-07T20:41:48.291Z,51.03
2023-02-07T20:44:21.878Z,50.56
2023-02-07T20:46:51.657Z,51.10
2023-02-07T20:49:23.894Z,51.13
2023-02-07T20:51:54.609Z,50.97
2023-02-07T20:54:26.258Z,49.91
2023-02-07T20:56:55.750Z,49.20
2023-02-07T20:59:27.853Z,49.25
2023-02-07T21:01:57.424Z,49.60
2023-02-07T21:04:27.196Z,49.90
2023-02-07T21:06:55.781Z,49.69
2023-02-07T21:09:24.409Z,49.54
2023-02-07T21:11:54.748Z,49.83
2023-02-07T21:14:28.941Z,49.61
2023-02-07T21:16:59.899Z,49.50
2023-02-07T21:19:28.933Z,48.89
2023-02-07T21:21:57.250Z,48.73
2023-02-07T21:24:26.099Z,48.33
2023-02-07T21:26:57.820Z,48.22
2023-02-07T21:29:27.817Z,48.87
2023-02-07T21:31:56.270Z,48.14
2023-02-07T21:34:26.253Z,47.82
2023-02-07T21:36:54.530Z,47.81
2023-02-07T21:39:25.100Z,46.98
2023-02-07T21:41:53.495Z,47.54
2023-02-07T21:44:21.942Z,47.91
2023-02-07T21:46:51.737Z,47.92
2023-02-07T21:49:21.451Z,47.76
2023-02-07T21:51:51.248Z,47.70
2023-02-07T21:54:19.907Z,47.45
2023-02-07T21:56:50.959Z,46.57
2023-02-07T21:59:21.305Z,46.68
2023-02-07T22:01:49.991Z,46.96
2023-02-07T22:04:19.515Z,47.11
2023-02-07T22:06:50.102Z,46.46
2023-02-07T22:09:20.228Z,46.78
2023-02-07T22:11:48.599Z,47.05
2023-02-07T22:14:17.920Z,46.86
2023-02-07T22:16:47.392Z,46.65
2023-02-07T22:19:17.985Z,46.46
2023-02-07T22:21:47.527Z,46.24
2023-02-07T22:24:18.342Z,46.29
2023-02-07T22:26:46.754Z,46.31
2023-02-07T22:29:15.063Z,45.44
2023-02-07T22:31:44.186Z,45.77
2023-02-07T22:34:14.476Z,44.25
2023-02-07T22:36:44.489Z,44.83
2023-02-07T22:39:14.801Z,44.70
2023-02-07T22:41:43.887Z,44.93
2023-02-07T22:44:12.835Z,44.44
2023-02-07T22:46:41.640Z,43.63
2023-02-07T22:49:09.990Z,43.86
2023-02-07T22:51:39.057Z,44.09
2023-02-07T22:54:18.070Z,44.05
2023-02-07T22:56:47.759Z,43.50
2023-02-07T22:59:16.193Z,43.94
2023-02-07T23:01:46.356Z,44.31
2023-02-07T23:04:18.231Z,44.15
2023-02-07T23:06:48.007Z,44.50
2023-02-07T23:09:16.933Z,44.70
2023-02-07T23:11:45.724Z,44.37
2023-02-07T23:14:14.454Z,44.55
2023-02-07T23:16:43.112Z,44.75
2023-02-07T23:19:15.505Z,44.32
2023-02-07T23:21:44.413Z,44.07
2023-02-07T23:24:13.041Z,44.41
2023-02-07T23:26:41.466Z,44.61
2023-02-07T23:29:09.947Z,44.88
2023-02-07T23:31:38.341Z,45.04
2023-02-07T23:34:06.715Z,44.39
2023-02-07T23:36:35.012Z,44.81
2023-02-07T23:39:03.823Z,45.44
2023-02-07T23:41:32.499Z,45.34
2023-02-07T23:44:03.662Z,45.66
2023-02-07T23:46:33.484Z,45.85
2023-02-07T23:49:02.114Z,46.12
2023-02-07T23:51:30.498Z,45.99
2023-02-07T23:53:59.164Z,46.25
2023-02-07T23:56:27.471Z,46.90
2023-02-07T23:58:55.794Z,46.61
